地図

経路データ

SID SEASON NUMBER BASIN SUBBASIN NAME ISO_TIME NATURE LAT LON WMO_WIND WMO_PRES WMO_AGENCY TRACK_TYPE DIST2LAND LANDFALL IFLAG USA_AGENCY USA_ATCF_ID USA_LAT USA_LON USA_RECORD USA_STATUS USA_WIND USA_PRES USA_SSHS USA_R34_NE USA_R34_SE USA_R34_SW USA_R34_NW USA_R50_NE USA_R50_SE USA_R50_SW USA_R50_NW USA_R64_NE USA_R64_SE USA_R64_SW USA_R64_NW USA_POCI USA_ROCI USA_RMW USA_EYE TOKYO_LAT TOKYO_LON TOKYO_GRADE TOKYO_WIND TOKYO_PRES TOKYO_R50_DIR TOKYO_R50_LONG TOKYO_R50_SHORT TOKYO_R30_DIR TOKYO_R30_LONG TOKYO_R30_SHORT TOKYO_LAND CMA_LAT CMA_LON CMA_CAT CMA_WIND CMA_PRES HKO_LAT HKO_LON HKO_CAT HKO_WIND HKO_PRES NEWDELHI_LAT NEWDELHI_LON NEWDELHI_GRADE NEWDELHI_WIND NEWDELHI_PRES NEWDELHI_CI NEWDELHI_DP NEWDELHI_POCI REUNION_LAT REUNION_LON REUNION_TYPE REUNION_WIND REUNION_PRES REUNION_TNUM REUNION_CI REUNION_RMW REUNION_R34_NE REUNION_R34_SE REUNION_R34_SW REUNION_R34_NW REUNION_R50_NE REUNION_R50_SE REUNION_R50_SW REUNION_R50_NW REUNION_R64_NE REUNION_R64_SE REUNION_R64_SW REUNION_R64_NW BOM_LAT BOM_LON BOM_TYPE BOM_WIND BOM_PRES BOM_TNUM BOM_CI BOM_RMW BOM_R34_NE BOM_R34_SE BOM_R34_SW BOM_R34_NW BOM_R50_NE BOM_R50_SE BOM_R50_SW BOM_R50_NW BOM_R64_NE BOM_R64_SE BOM_R64_SW BOM_R64_NW BOM_ROCI BOM_POCI BOM_EYE BOM_POS_METHOD BOM_PRES_METHOD NADI_LAT NADI_LON NADI_CAT NADI_WIND NADI_PRES WELLINGTON_LAT WELLINGTON_LON WELLINGTON_WIND WELLINGTON_PRES DS824_LAT DS824_LON DS824_STAGE DS824_WIND DS824_PRES TD9636_LAT TD9636_LON TD9636_STAGE TD9636_WIND TD9636_PRES TD9635_LAT TD9635_LON TD9635_WIND TD9635_PRES TD9635_ROCI NEUMANN_LAT NEUMANN_LON NEUMANN_CLASS NEUMANN_WIND NEUMANN_PRES MLC_LAT MLC_LON MLC_CLASS MLC_WIND MLC_PRES USA_GUST BOM_GUST BOM_GUST_PER REUNION_GUST REUNION_GUST_PER USA_SEAHGT USA_SEARAD_NE USA_SEARAD_SE USA_SEARAD_SW USA_SEARAD_NW STORM_SPEED STORM_DIR
1987187N13258 1987 40 EP MM CALVIN 1987-07-05 18:00:00 TS 12.6000 -101.800 25 hurdat_epa main 511 511 O_________O___ hurdat_epa EP031987 12.6000 -101.800 TD 25 -1 12.6000 -101.800 1 25 12 279
1987187N13258 1987 40 EP MM CALVIN 1987-07-05 21:00:00 TS 12.6915 -102.409 main 532 532 P_________P___ EP031987 12.6903 -102.410 TD 27 -1 12.6952 -102.406 1 27 12 280
1987187N13258 1987 40 EP MM CALVIN 1987-07-06 00:00:00 TS 12.8000 -103.000 30 hurdat_epa main 543 541 O_________O___ hurdat_epa EP031987 12.8000 -103.000 TD 30 -1 12.8000 -103.000 1 30 12 282
1987187N13258 1987 40 EP MM CALVIN 1987-07-06 03:00:00 TS 12.9376 -103.561 main 560 551 P_________P___ EP031987 12.9423 -103.558 TD 32 -1 12.9232 -103.573 1 31 11 285
1987187N13258 1987 40 EP MM CALVIN 1987-07-06 06:00:00 TS 13.0914 -104.107 35 hurdat_epa main 569 569 O_________P___ hurdat_epa EP031987 13.1000 -104.100 TS 35 0 13.0655 -104.128 1 32 11 285
1987187N13258 1987 40 EP MM CALVIN 1987-07-06 09:00:00 TS 13.2324 -104.655 main 581 570 P_________P___ EP031987 13.2349 -104.650 TS 35 0 13.2249 -104.668 1 33 11 286
1987187N13258 1987 40 EP MM CALVIN 1987-07-06 12:00:00 TS 13.4000 -105.200 35 hurdat_epa main 577 571 O_________O___ hurdat_epa EP031987 13.4000 -105.200 TS 35 0 13.4000 -105.200 2 35 11 291
1987187N13258 1987 40 EP MM CALVIN 1987-07-06 15:00:00 TS 13.6366 -105.741 main 576 570 P_________P___ EP031987 13.6499 -105.757 TS 35 0 13.5967 -105.692 2 36 11 295
1987187N13258 1987 40 EP MM CALVIN 1987-07-06 18:00:00 TS 13.8765 -106.271 35 hurdat_epa main 576 576 O_________P___ hurdat_epa EP031987 13.9000 -106.300 TS 35 0 13.8058 -106.183 2 37 11 293
1987187N13258 1987 40 EP MM CALVIN 1987-07-06 21:00:00 TS 14.0515 -106.760 main 587 587 P_________P___ EP031987 14.0646 -106.778 TS 37 0 14.0121 -106.707 2 38 11 288
1987187N13258 1987 40 EP MM CALVIN 1987-07-07 00:00:00 TS 14.2000 -107.300 40 hurdat_epa main 612 612 O_________O___ hurdat_epa EP031987 14.2000 -107.300 TS 40 0 14.2000 -107.300 2 40 12 285
1987187N13258 1987 40 EP MM CALVIN 1987-07-07 03:00:00 TS 14.3588 -107.964 main 636 636 P_________P___ EP031987 14.3573 -107.948 TS 42 0 14.3633 -108.015 2 41 14 282
1987187N13258 1987 40 EP MM CALVIN 1987-07-07 06:00:00 TS 14.5008 -108.724 45 hurdat_epa main 669 669 O_________P___ hurdat_epa EP031987 14.5000 -108.700 TS 45 0 14.5032 -108.797 2 42 16 279
1987187N13258 1987 40 EP MM CALVIN 1987-07-07 09:00:00 TS 14.6155 -109.570 main 725 725 P_________P___ EP031987 14.6152 -109.558 TS 45 0 14.6164 -109.606 2 43 16 277
1987187N13258 1987 40 EP MM CALVIN 1987-07-07 12:00:00 TS 14.7000 -110.400 45 hurdat_epa main 778 778 O_________O___ hurdat_epa EP031987 14.7000 -110.400 TS 45 0 14.7000 -110.400 2 45 15 276
1987187N13258 1987 40 EP MM CALVIN 1987-07-07 15:00:00 TS 14.7625 -111.079 main 824 824 P_________P___ EP031987 14.7644 -111.065 TS 45 0 14.7568 -111.122 2 45 13 274
1987187N13258 1987 40 EP MM CALVIN 1987-07-07 18:00:00 TS 14.7966 -111.731 45 hurdat_epa main 873 873 O_________P___ hurdat_epa EP031987 14.8000 -111.700 TS 45 0 14.7862 -111.823 2 45 13 272
1987187N13258 1987 40 EP MM CALVIN 1987-07-07 21:00:00 TS 14.8049 -112.454 main 940 940 P_________P___ EP031987 14.8074 -112.435 TS 45 0 14.7975 -112.512 2 45 14 270
1987187N13258 1987 40 EP MM CALVIN 1987-07-08 00:00:00 TS 14.8000 -113.200 45 hurdat_epa main 966 966 O_________O___ hurdat_epa EP031987 14.8000 -113.200 TS 45 0 14.8000 -113.200 2 45 15 270
1987187N13258 1987 40 EP MM CALVIN 1987-07-08 03:00:00 TS 14.8006 -113.953 main 998 998 P_________P___ EP031987 14.7999 -113.965 TS 47 0 14.8028 -113.916 2 47 14 270
1987187N13258 1987 40 EP MM CALVIN 1987-07-08 06:00:00 TS 14.7999 -114.683 50 hurdat_epa main 1032 1032 O_________P___ hurdat_epa EP031987 14.8000 -114.700 TS 50 0 14.7997 -114.630 2 50 14 270
1987187N13258 1987 40 EP MM CALVIN 1987-07-08 09:00:00 TS 14.7989 -115.356 main 1069 1069 P_________P___ EP031987 14.7997 -115.365 TS 52 0 14.7966 -115.329 2 52 13 270
1987187N13258 1987 40 EP MM CALVIN 1987-07-08 12:00:00 TS 14.8000 -116.000 55 hurdat_epa main 1104 1104 O_________O___ hurdat_epa EP031987 14.8000 -116.000 TS 55 0 14.8000 -116.000 2 55 13 270
1987187N13258 1987 40 EP MM CALVIN 1987-07-08 15:00:00 TS 14.7966 -116.661 main 1147 1147 P_________P___ EP031987 14.7924 -116.665 TS 55 0 14.8092 -116.649 2 52 13 270
1987187N13258 1987 40 EP MM CALVIN 1987-07-08 18:00:00 TS 14.8067 -117.292 55 hurdat_epa main 1187 1187 O_________P___ hurdat_epa EP031987 14.8000 -117.300 TS 55 0 14.8269 -117.267 2 50 12 272
1987187N13258 1987 40 EP MM CALVIN 1987-07-08 21:00:00 TS 14.8401 -117.862 main 1229 1227 P_________P___ EP031987 14.8348 -117.865 TS 50 0 14.8562 -117.852 2 47 11 275
1987187N13258 1987 40 EP MM CALVIN 1987-07-09 00:00:00 TS 14.9000 -118.400 45 hurdat_epa main 1256 1256 O_________O___ hurdat_epa EP031987 14.9000 -118.400 TS 45 0 14.9000 -118.400 2 45 11 278
1987187N13258 1987 40 EP MM CALVIN 1987-07-09 03:00:00 TS 14.9819 -118.963 main 1294 1294 P_________P___ EP031987 15.0000 -118.972 TS 40 0 14.9277 -118.936 2 41 11 279
1987187N13258 1987 40 EP MM CALVIN 1987-07-09 06:00:00 TS 15.0686 -119.483 35 hurdat_epa main 1322 1322 O_________P___ hurdat_epa EP031987 15.1000 -119.500 TS 35 0 14.9746 -119.433 2 37 9 278
1987187N13258 1987 40 EP MM CALVIN 1987-07-09 09:00:00 TS 15.1103 -119.920 main 1347 1347 P_________P___ EP031987 15.1273 -119.930 TS 32 -1 15.0591 -119.889 2 33 8 279
1987187N13258 1987 40 EP MM CALVIN 1987-07-09 12:00:00 TS 15.2000 -120.300 30 hurdat_epa main 1364 1361 O_________O___ hurdat_epa EP031987 15.2000 -120.300 TD 30 -1 15.2000 -120.300 1 30 8 293
1987187N13258 1987 40 EP MM CALVIN 1987-07-09 15:00:00 TS 15.4102 -120.667 main 1373 1364 P_________P___ EP031987 15.4124 -120.665 TD 30 -1 15.4034 -120.671 1 28 8 306
1987187N13258 1987 40 EP MM CALVIN 1987-07-09 18:00:00 TS 15.6911 -121.000 30 hurdat_epa main 1368 1365 O_________P___ hurdat_epa EP031987 15.7000 -121.000 TD 30 -1 15.6643 -121.001 1 27 8 313
1987187N13258 1987 40 EP MM CALVIN 1987-07-09 21:00:00 TS 15.9807 -121.307 main 1365 1363 P_________P___ EP031987 15.9849 -121.308 TD 27 -1 15.9680 -121.305 1 26 8 317
1987187N13258 1987 40 EP MM CALVIN 1987-07-10 00:00:00 TS 16.3000 -121.600 25 hurdat_epa main 1363 1354 O_________O___ hurdat_epa EP031987 16.3000 -121.600 TD 25 -1 16.3000 -121.600 1 25 9 319
1987187N13258 1987 40 EP MM CALVIN 1987-07-10 03:00:00 TS 16.6436 -121.897 main 1362 1354 P_________P___ EP031987 16.6426 -121.897 TD 22 -1 16.6467 -121.898 1 22 9 321
1987187N13258 1987 40 EP MM CALVIN 1987-07-10 06:00:00 TS 17.0000 -122.200 20 hurdat_epa main 1355 O_________O___ hurdat_epa EP031987 17.0000 -122.200 TD 20 -1 17.0000 -122.200 1 20 9 321

IBTrACS Databaseについて

本データベースは、米国NOAAが公開する1842年以降の世界の熱帯低気圧のベストトラックデータアーカイブInternational Best Track Archive for Climate Stewardship (IBTrACS)を、ウェブで閲覧しやすい形式に変換したものです。

最終更新日:2021-12-06